sensor_id;sensor_type;location;lat;lon;timestamp;P1;durP1;ratioP1;P2;durP2;ratioP2
6850;SDS011;3464;42.728;23.296;2023-05-10T00:02:19;12.60;;;7.30;;
6850;SDS011;3464;42.728;23.296;2023-05-10T00:04:45;14.47;;;8.67;;
6850;SDS011;3464;42.728;23.296;2023-05-10T00:07:12;14.90;;;8.87;;
6850;SDS011;3464;42.728;23.296;2023-05-10T00:09:38;18.07;;;10.70;;
6850;SDS011;3464;42.728;23.296;2023-05-10T00:12:05;21.10;;;12.40;;
6850;SDS011;3464;42.728;23.296;2023-05-10T00:14:31;19.27;;;12.20;;
6850;SDS011;3464;42.728;23.296;2023-05-10T00:16:58;19.70;;;13.00;;
6850;SDS011;3464;42.728;23.296;2023-05-10T00:19:26;23.80;;;15.03;;
6850;SDS011;3464;42.728;23.296;2023-05-10T00:21:53;21.80;;;14.00;;
6850;SDS011;3464;42.728;23.296;2023-05-10T00:24:19;21.10;;;14.70;;
6850;SDS011;3464;42.728;23.296;2023-05-10T00:26:46;21.87;;;15.17;;
6850;SDS011;3464;42.728;23.296;2023-05-10T00:29:12;21.33;;;14.27;;
6850;SDS011;3464;42.728;23.296;2023-05-10T00:31:39;24.63;;;14.43;;
6850;SDS011;3464;42.728;23.296;2023-05-10T00:34:06;20.63;;;14.17;;
6850;SDS011;3464;42.728;23.296;2023-05-10T00:36:32;19.70;;;13.13;;
6850;SDS011;3464;42.728;23.296;2023-05-10T00:38:59;21.10;;;14.00;;
6850;SDS011;3464;42.728;23.296;2023-05-10T00:41:25;22.20;;;13.73;;
6850;SDS011;3464;42.728;23.296;2023-05-10T00:43:52;21.40;;;12.90;;
6850;SDS011;3464;42.728;23.296;2023-05-10T00:46:19;18.10;;;12.37;;
6850;SDS011;3464;42.728;23.296;2023-05-10T00:48:45;19.67;;;13.10;;
6850;SDS011;3464;42.728;23.296;2023-05-10T00:51:12;19.63;;;13.47;;
6850;SDS011;3464;42.728;23.296;2023-05-10T00:53:38;22.63;;;14.53;;
6850;SDS011;3464;42.728;23.296;2023-05-10T00:56:05;20.13;;;14.23;;
6850;SDS011;3464;42.728;23.296;2023-05-10T00:58:31;25.23;;;15.17;;
6850;SDS011;3464;42.728;23.296;2023-05-10T01:00:58;22.73;;;14.97;;
6850;SDS011;3464;42.728;23.296;2023-05-10T01:03:25;23.80;;;15.27;;
6850;SDS011;3464;42.728;23.296;2023-05-10T01:05:51;24.00;;;16.67;;
6850;SDS011;3464;42.728;23.296;2023-05-10T01:08:18;22.57;;;15.97;;
6850;SDS011;3464;42.728;23.296;2023-05-10T01:10:44;22.77;;;15.43;;
6850;SDS011;3464;42.728;23.296;2023-05-10T01:13:11;20.23;;;15.00;;
6850;SDS011;3464;42.728;23.296;2023-05-10T01:15:38;22.03;;;15.50;;
6850;SDS011;3464;42.728;23.296;2023-05-10T01:18:04;20.60;;;15.10;;
6850;SDS011;3464;42.728;23.296;2023-05-10T01:20:34;20.53;;;15.00;;
6850;SDS011;3464;42.728;23.296;2023-05-10T01:26:17;19.30;;;13.27;;
6850;SDS011;3464;42.728;23.296;2023-05-10T01:32:24;20.57;;;14.33;;
6850;SDS011;3464;42.728;23.296;2023-05-10T01:34:01;19.67;;;12.97;;
6850;SDS011;3464;42.728;23.296;2023-05-10T01:36:30;21.43;;;13.13;;
6850;SDS011;3464;42.728;23.296;2023-05-10T01:39:01;19.80;;;13.30;;
6850;SDS011;3464;42.728;23.296;2023-05-10T01:41:28;18.63;;;11.80;;
6850;SDS011;3464;42.728;23.296;2023-05-10T01:44:02;18.27;;;12.20;;
6850;SDS011;3464;42.728;23.296;2023-05-10T01:46:35;15.87;;;11.03;;
6850;SDS011;3464;42.728;23.296;2023-05-10T01:49:00;15.97;;;10.70;;
6850;SDS011;3464;42.728;23.296;2023-05-10T01:51:29;17.87;;;10.73;;
6850;SDS011;3464;42.728;23.296;2023-05-10T01:53:56;15.37;;;10.30;;
6850;SDS011;3464;42.728;23.296;2023-05-10T01:56:22;15.30;;;10.03;;
6850;SDS011;3464;42.728;23.296;2023-05-10T01:58:48;16.03;;;11.03;;
6850;SDS011;3464;42.728;23.296;2023-05-10T02:01:15;14.63;;;9.57;;
6850;SDS011;3464;42.728;23.296;2023-05-10T02:03:42;14.53;;;9.00;;
6850;SDS011;3464;42.728;23.296;2023-05-10T02:06:08;15.50;;;9.47;;
6850;SDS011;3464;42.728;23.296;2023-05-10T02:08:35;13.30;;;8.50;;
6850;SDS011;3464;42.728;23.296;2023-05-10T02:11:02;15.30;;;9.40;;
6850;SDS011;3464;42.728;23.296;2023-05-10T02:13:28;12.83;;;7.80;;
6850;SDS011;3464;42.728;23.296;2023-05-10T02:15:55;13.10;;;7.90;;
6850;SDS011;3464;42.728;23.296;2023-05-10T02:18:21;14.23;;;7.97;;
6850;SDS011;3464;42.728;23.296;2023-05-10T02:20:48;13.20;;;8.40;;
6850;SDS011;3464;42.728;23.296;2023-05-10T02:23:15;14.27;;;8.50;;
6850;SDS011;3464;42.728;23.296;2023-05-10T02:25:42;15.00;;;8.53;;
6850;SDS011;3464;42.728;23.296;2023-05-10T02:28:08;13.80;;;8.80;;
6850;SDS011;3464;42.728;23.296;2023-05-10T02:30:35;13.97;;;8.83;;
6850;SDS011;3464;42.728;23.296;2023-05-10T02:33:02;17.70;;;8.60;;
6850;SDS011;3464;42.728;23.296;2023-05-10T02:35:28;17.60;;;8.80;;
6850;SDS011;3464;42.728;23.296;2023-05-10T02:37:55;16.90;;;9.37;;
6850;SDS011;3464;42.728;23.296;2023-05-10T02:40:22;14.17;;;9.23;;
6850;SDS011;3464;42.728;23.296;2023-05-10T02:42:48;13.10;;;8.20;;
6850;SDS011;3464;42.728;23.296;2023-05-10T02:45:17;19.93;;;9.00;;
6850;SDS011;3464;42.728;23.296;2023-05-10T02:47:41;13.67;;;8.20;;
6850;SDS011;3464;42.728;23.296;2023-05-10T02:50:09;13.50;;;7.20;;
6850;SDS011;3464;42.728;23.296;2023-05-10T02:52:38;13.50;;;7.50;;
6850;SDS011;3464;42.728;23.296;2023-05-10T02:55:06;14.00;;;7.00;;
6850;SDS011;3464;42.728;23.296;2023-05-10T02:57:34;13.57;;;6.80;;
6850;SDS011;3464;42.728;23.296;2023-05-10T03:00:00;12.97;;;6.50;;
6850;SDS011;3464;42.728;23.296;2023-05-10T03:02:26;15.40;;;6.90;;
6850;SDS011;3464;42.728;23.296;2023-05-10T03:04:53;13.47;;;7.00;;
6850;SDS011;3464;42.728;23.296;2023-05-10T03:07:20;14.00;;;7.03;;
6850;SDS011;3464;42.728;23.296;2023-05-10T03:09:48;14.83;;;7.50;;
6850;SDS011;3464;42.728;23.296;2023-05-10T03:12:22;12.13;;;6.13;;
6850;SDS011;3464;42.728;23.296;2023-05-10T03:14:49;13.03;;;6.57;;
6850;SDS011;3464;42.728;23.296;2023-05-10T03:20:03;15.53;;;6.93;;
6850;SDS011;3464;42.728;23.296;2023-05-10T03:22:38;14.17;;;7.20;;
6850;SDS011;3464;42.728;23.296;2023-05-10T03:25:04;15.23;;;7.70;;
6850;SDS011;3464;42.728;23.296;2023-05-10T03:27:30;17.60;;;7.90;;
6850;SDS011;3464;42.728;23.296;2023-05-10T03:29:56;14.00;;;7.40;;
6850;SDS011;3464;42.728;23.296;2023-05-10T03:32:23;15.33;;;7.30;;
6850;SDS011;3464;42.728;23.296;2023-05-10T03:34:49;15.77;;;7.50;;
6850;SDS011;3464;42.728;23.296;2023-05-10T03:37:16;15.43;;;7.67;;
6850;SDS011;3464;42.728;23.296;2023-05-10T03:39:42;16.40;;;7.20;;
6850;SDS011;3464;42.728;23.296;2023-05-10T03:42:09;17.83;;;6.87;;
6850;SDS011;3464;42.728;23.296;2023-05-10T03:44:35;15.73;;;8.03;;
6850;SDS011;3464;42.728;23.296;2023-05-10T03:47:02;12.50;;;6.70;;
6850;SDS011;3464;42.728;23.296;2023-05-10T03:49:28;15.47;;;8.00;;
6850;SDS011;3464;42.728;23.296;2023-05-10T03:51:55;14.00;;;7.50;;
6850;SDS011;3464;42.728;23.296;2023-05-10T03:54:22;14.13;;;7.10;;
6850;SDS011;3464;42.728;23.296;2023-05-10T03:56:48;13.83;;;7.20;;
6850;SDS011;3464;42.728;23.296;2023-05-10T03:59:15;13.33;;;6.53;;
6850;SDS011;3464;42.728;23.296;2023-05-10T04:01:41;15.73;;;6.57;;
6850;SDS011;3464;42.728;23.296;2023-05-10T04:04:08;19.27;;;7.53;;
6850;SDS011;3464;42.728;23.296;2023-05-10T04:06:35;13.30;;;7.13;;
6850;SDS011;3464;42.728;23.296;2023-05-10T04:09:02;19.53;;;7.40;;
6850;SDS011;3464;42.728;23.296;2023-05-10T04:11:29;16.00;;;7.70;;
6850;SDS011;3464;42.728;23.296;2023-05-10T04:13:56;15.30;;;6.73;;
6850;SDS011;3464;42.728;23.296;2023-05-10T04:16:22;15.13;;;6.43;;
6850;SDS011;3464;42.728;23.296;2023-05-10T04:18:49;14.83;;;7.37;;
6850;SDS011;3464;42.728;23.296;2023-05-10T04:21:15;14.10;;;6.80;;
6850;SDS011;3464;42.728;23.296;2023-05-10T04:23:43;16.97;;;7.20;;
6850;SDS011;3464;42.728;23.296;2023-05-10T04:26:09;13.77;;;6.60;;
6850;SDS011;3464;42.728;23.296;2023-05-10T04:28:36;18.00;;;6.60;;
6850;SDS011;3464;42.728;23.296;2023-05-10T04:31:03;14.27;;;6.87;;
6850;SDS011;3464;42.728;23.296;2023-05-10T04:33:29;12.83;;;6.17;;
6850;SDS011;3464;42.728;23.296;2023-05-10T04:35:56;14.00;;;6.87;;
6850;SDS011;3464;42.728;23.296;2023-05-10T04:38:22;13.57;;;6.70;;
6850;SDS011;3464;42.728;23.296;2023-05-10T04:40:49;14.70;;;6.87;;
6850;SDS011;3464;42.728;23.296;2023-05-10T04:43:16;18.17;;;9.53;;
6850;SDS011;3464;42.728;23.296;2023-05-10T04:45:42;13.70;;;6.60;;
6850;SDS011;3464;42.728;23.296;2023-05-10T04:48:09;14.20;;;7.57;;
6850;SDS011;3464;42.728;23.296;2023-05-10T04:50:35;18.07;;;7.50;;
6850;SDS011;3464;42.728;23.296;2023-05-10T04:53:02;16.30;;;7.33;;
6850;SDS011;3464;42.728;23.296;2023-05-10T04:55:29;15.10;;;7.50;;
6850;SDS011;3464;42.728;23.296;2023-05-10T04:57:55;17.37;;;7.30;;
6850;SDS011;3464;42.728;23.296;2023-05-10T05:00:22;15.83;;;7.90;;
6850;SDS011;3464;42.728;23.296;2023-05-10T05:02:49;15.67;;;7.60;;
6850;SDS011;3464;42.728;23.296;2023-05-10T05:05:15;17.87;;;7.93;;
6850;SDS011;3464;42.728;23.296;2023-05-10T05:07:42;15.27;;;7.97;;
6850;SDS011;3464;42.728;23.296;2023-05-10T05:10:08;16.17;;;8.63;;
6850;SDS011;3464;42.728;23.296;2023-05-10T05:12:35;18.57;;;9.23;;
6850;SDS011;3464;42.728;23.296;2023-05-10T05:15:02;16.50;;;8.77;;
6850;SDS011;3464;42.728;23.296;2023-05-10T05:17:29;16.93;;;9.30;;
6850;SDS011;3464;42.728;23.296;2023-05-10T05:19:57;14.97;;;8.47;;
6850;SDS011;3464;42.728;23.296;2023-05-10T05:22:24;17.10;;;9.13;;
6850;SDS011;3464;42.728;23.296;2023-05-10T05:24:54;19.23;;;9.50;;
6850;SDS011;3464;42.728;23.296;2023-05-10T05:27:20;16.10;;;8.23;;
6850;SDS011;3464;42.728;23.296;2023-05-10T05:29:47;16.03;;;8.60;;
6850;SDS011;3464;42.728;23.296;2023-05-10T05:32:13;17.00;;;8.37;;
6850;SDS011;3464;42.728;23.296;2023-05-10T05:34:40;15.53;;;9.30;;
6850;SDS011;3464;42.728;23.296;2023-05-10T05:37:07;19.37;;;9.40;;
6850;SDS011;3464;42.728;23.296;2023-05-10T05:39:35;16.63;;;8.63;;
6850;SDS011;3464;42.728;23.296;2023-05-10T05:42:00;16.83;;;8.83;;
6850;SDS011;3464;42.728;23.296;2023-05-10T05:44:26;19.30;;;9.27;;
6850;SDS011;3464;42.728;23.296;2023-05-10T05:46:53;20.90;;;9.97;;
6850;SDS011;3464;42.728;23.296;2023-05-10T05:49:19;19.20;;;9.37;;
6850;SDS011;3464;42.728;23.296;2023-05-10T05:51:46;21.50;;;13.23;;
6850;SDS011;3464;42.728;23.296;2023-05-10T05:54:12;18.60;;;9.50;;
6850;SDS011;3464;42.728;23.296;2023-05-10T05:56:39;19.57;;;8.87;;
6850;SDS011;3464;42.728;23.296;2023-05-10T05:59:06;19.07;;;9.93;;
6850;SDS011;3464;42.728;23.296;2023-05-10T06:01:33;23.20;;;10.10;;
6850;SDS011;3464;42.728;23.296;2023-05-10T06:03:59;16.90;;;9.73;;
6850;SDS011;3464;42.728;23.296;2023-05-10T06:06:26;17.57;;;9.10;;
6850;SDS011;3464;42.728;23.296;2023-05-10T06:08:53;17.10;;;7.97;;
6850;SDS011;3464;42.728;23.296;2023-05-10T06:11:20;19.23;;;10.17;;
6850;SDS011;3464;42.728;23.296;2023-05-10T06:13:47;18.93;;;9.50;;
6850;SDS011;3464;42.728;23.296;2023-05-10T06:16:13;17.20;;;9.20;;
6850;SDS011;3464;42.728;23.296;2023-05-10T06:18:40;19.80;;;9.30;;
6850;SDS011;3464;42.728;23.296;2023-05-10T06:21:07;18.07;;;8.40;;
6850;SDS011;3464;42.728;23.296;2023-05-10T06:23:34;14.70;;;8.20;;
6850;SDS011;3464;42.728;23.296;2023-05-10T06:26:04;17.90;;;10.10;;
6850;SDS011;3464;42.728;23.296;2023-05-10T06:28:30;16.90;;;9.50;;
6850;SDS011;3464;42.728;23.296;2023-05-10T06:30:57;19.67;;;8.53;;
6850;SDS011;3464;42.728;23.296;2023-05-10T06:33:23;19.70;;;9.20;;
6850;SDS011;3464;42.728;23.296;2023-05-10T06:35:50;18.33;;;8.57;;
6850;SDS011;3464;42.728;23.296;2023-05-10T06:38:16;15.27;;;8.57;;
6850;SDS011;3464;42.728;23.296;2023-05-10T06:40:43;18.07;;;9.10;;
6850;SDS011;3464;42.728;23.296;2023-05-10T06:43:10;16.70;;;8.73;;
6850;SDS011;3464;42.728;23.296;2023-05-10T06:45:36;20.13;;;10.10;;
6850;SDS011;3464;42.728;23.296;2023-05-10T06:48:03;19.80;;;10.73;;
6850;SDS011;3464;42.728;23.296;2023-05-10T06:50:29;17.93;;;9.97;;
6850;SDS011;3464;42.728;23.296;2023-05-10T06:52:56;20.50;;;11.20;;
6850;SDS011;3464;42.728;23.296;2023-05-10T06:55:23;20.20;;;9.47;;
6850;SDS011;3464;42.728;23.296;2023-05-10T06:57:49;22.17;;;10.63;;
6850;SDS011;3464;42.728;23.296;2023-05-10T07:00:16;19.07;;;8.80;;
6850;SDS011;3464;42.728;23.296;2023-05-10T07:02:43;18.33;;;8.30;;
6850;SDS011;3464;42.728;23.296;2023-05-10T07:05:10;17.10;;;8.70;;
6850;SDS011;3464;42.728;23.296;2023-05-10T07:07:36;18.73;;;7.90;;
6850;SDS011;3464;42.728;23.296;2023-05-10T07:10:03;18.63;;;8.60;;
6850;SDS011;3464;42.728;23.296;2023-05-10T07:12:30;16.27;;;8.23;;
6850;SDS011;3464;42.728;23.296;2023-05-10T07:14:56;16.80;;;8.10;;
6850;SDS011;3464;42.728;23.296;2023-05-10T07:17:23;14.80;;;6.97;;
6850;SDS011;3464;42.728;23.296;2023-05-10T07:19:49;17.70;;;7.20;;
6850;SDS011;3464;42.728;23.296;2023-05-10T07:22:16;15.70;;;8.40;;
6850;SDS011;3464;42.728;23.296;2023-05-10T07:24:42;17.63;;;7.30;;
6850;SDS011;3464;42.728;23.296;2023-05-10T07:27:10;16.83;;;7.83;;
6850;SDS011;3464;42.728;23.296;2023-05-10T07:29:36;20.10;;;8.43;;
6850;SDS011;3464;42.728;23.296;2023-05-10T07:32:03;17.80;;;8.00;;
6850;SDS011;3464;42.728;23.296;2023-05-10T07:34:31;15.90;;;7.83;;
6850;SDS011;3464;42.728;23.296;2023-05-10T07:36:58;15.30;;;6.17;;
6850;SDS011;3464;42.728;23.296;2023-05-10T07:39:25;16.13;;;5.83;;
6850;SDS011;3464;42.728;23.296;2023-05-10T07:41:53;14.10;;;6.40;;
6850;SDS011;3464;42.728;23.296;2023-05-10T07:44:20;15.00;;;6.20;;
6850;SDS011;3464;42.728;23.296;2023-05-10T07:46:47;16.87;;;6.63;;
6850;SDS011;3464;42.728;23.296;2023-05-10T07:49:16;14.43;;;7.00;;
6850;SDS011;3464;42.728;23.296;2023-05-10T07:51:43;13.07;;;6.37;;
6850;SDS011;3464;42.728;23.296;2023-05-10T07:54:10;16.10;;;7.50;;
6850;SDS011;3464;42.728;23.296;2023-05-10T07:56:37;19.97;;;8.33;;
6850;SDS011;3464;42.728;23.296;2023-05-10T07:59:05;17.70;;;6.77;;
6850;SDS011;3464;42.728;23.296;2023-05-10T08:01:31;15.27;;;7.33;;
6850;SDS011;3464;42.728;23.296;2023-05-10T08:03:58;15.60;;;7.50;;
6850;SDS011;3464;42.728;23.296;2023-05-10T08:06:24;21.10;;;8.30;;
6850;SDS011;3464;42.728;23.296;2023-05-10T08:08:51;17.40;;;7.23;;
6850;SDS011;3464;42.728;23.296;2023-05-10T08:11:17;16.83;;;7.70;;
6850;SDS011;3464;42.728;23.296;2023-05-10T08:13:45;17.13;;;8.57;;
6850;SDS011;3464;42.728;23.296;2023-05-10T08:16:11;17.43;;;7.47;;
6850;SDS011;3464;42.728;23.296;2023-05-10T08:18:38;18.53;;;8.23;;
6850;SDS011;3464;42.728;23.296;2023-05-10T08:21:04;16.50;;;7.60;;
6850;SDS011;3464;42.728;23.296;2023-05-10T08:23:31;18.57;;;8.27;;
6850;SDS011;3464;42.728;23.296;2023-05-10T08:25:57;17.40;;;8.70;;
6850;SDS011;3464;42.728;23.296;2023-05-10T08:28:24;19.43;;;8.73;;
6850;SDS011;3464;42.728;23.296;2023-05-10T08:30:51;22.53;;;8.13;;
6850;SDS011;3464;42.728;23.296;2023-05-10T08:33:18;17.60;;;9.30;;
6850;SDS011;3464;42.728;23.296;2023-05-10T08:35:46;17.93;;;7.60;;
6850;SDS011;3464;42.728;23.296;2023-05-10T08:38:13;15.90;;;7.23;;
6850;SDS011;3464;42.728;23.296;2023-05-10T08:40:42;15.57;;;6.97;;
6850;SDS011;3464;42.728;23.296;2023-05-10T08:43:09;14.80;;;7.63;;
6850;SDS011;3464;42.728;23.296;2023-05-10T08:45:37;14.73;;;7.40;;
6850;SDS011;3464;42.728;23.296;2023-05-10T08:48:04;15.97;;;8.10;;
6850;SDS011;3464;42.728;23.296;2023-05-10T08:50:29;17.50;;;7.17;;
6850;SDS011;3464;42.728;23.296;2023-05-10T08:52:57;17.40;;;8.23;;
6850;SDS011;3464;42.728;23.296;2023-05-10T08:55:23;20.87;;;8.00;;
6850;SDS011;3464;42.728;23.296;2023-05-10T08:57:50;16.27;;;7.80;;
6850;SDS011;3464;42.728;23.296;2023-05-10T09:00:17;15.43;;;7.90;;
6850;SDS011;3464;42.728;23.296;2023-05-10T09:02:44;16.80;;;8.23;;
6850;SDS011;3464;42.728;23.296;2023-05-10T09:05:12;15.80;;;7.50;;
6850;SDS011;3464;42.728;23.296;2023-05-10T09:07:38;17.00;;;8.60;;
6850;SDS011;3464;42.728;23.296;2023-05-10T09:10:05;16.97;;;8.10;;
6850;SDS011;3464;42.728;23.296;2023-05-10T09:12:33;19.90;;;8.63;;
6850;SDS011;3464;42.728;23.296;2023-05-10T09:14:59;16.43;;;7.93;;
6850;SDS011;3464;42.728;23.296;2023-05-10T09:17:26;19.03;;;8.47;;
6850;SDS011;3464;42.728;23.296;2023-05-10T09:19:58;17.73;;;8.30;;
6850;SDS011;3464;42.728;23.296;2023-05-10T09:22:24;17.90;;;9.37;;
6850;SDS011;3464;42.728;23.296;2023-05-10T09:27:30;16.57;;;6.70;;
6850;SDS011;3464;42.728;23.296;2023-05-10T09:29:57;19.33;;;7.83;;
6850;SDS011;3464;42.728;23.296;2023-05-10T09:32:35;15.27;;;7.80;;
6850;SDS011;3464;42.728;23.296;2023-05-10T09:34:57;15.53;;;7.90;;
6850;SDS011;3464;42.728;23.296;2023-05-10T09:37:29;24.07;;;7.90;;
6850;SDS011;3464;42.728;23.296;2023-05-10T09:39:56;19.30;;;7.73;;
6850;SDS011;3464;42.728;23.296;2023-05-10T09:42:23;18.23;;;8.20;;
6850;SDS011;3464;42.728;23.296;2023-05-10T09:44:50;19.73;;;8.43;;
6850;SDS011;3464;42.728;23.296;2023-05-10T09:47:17;16.77;;;9.20;;
6850;SDS011;3464;42.728;23.296;2023-05-10T09:49:44;17.30;;;8.60;;
6850;SDS011;3464;42.728;23.296;2023-05-10T09:52:10;16.80;;;8.73;;
6850;SDS011;3464;42.728;23.296;2023-05-10T09:54:45;18.57;;;7.73;;
6850;SDS011;3464;42.728;23.296;2023-05-10T09:57:18;23.83;;;7.90;;
6850;SDS011;3464;42.728;23.296;2023-05-10T09:59:36;16.73;;;7.40;;
6850;SDS011;3464;42.728;23.296;2023-05-10T10:02:03;15.80;;;7.70;;
6850;SDS011;3464;42.728;23.296;2023-05-10T10:04:30;16.83;;;8.40;;
6850;SDS011;3464;42.728;23.296;2023-05-10T10:07:00;17.60;;;7.40;;
6850;SDS011;3464;42.728;23.296;2023-05-10T10:09:26;14.60;;;7.20;;
6850;SDS011;3464;42.728;23.296;2023-05-10T10:11:54;16.77;;;7.20;;
6850;SDS011;3464;42.728;23.296;2023-05-10T10:14:23;14.50;;;7.17;;
6850;SDS011;3464;42.728;23.296;2023-05-10T10:16:50;14.80;;;6.80;;
6850;SDS011;3464;42.728;23.296;2023-05-10T10:19:18;18.37;;;7.60;;
6850;SDS011;3464;42.728;23.296;2023-05-10T10:21:47;16.60;;;7.23;;
6850;SDS011;3464;42.728;23.296;2023-05-10T10:24:13;14.90;;;7.20;;
6850;SDS011;3464;42.728;23.296;2023-05-10T10:26:41;16.50;;;7.57;;
6850;SDS011;3464;42.728;23.296;2023-05-10T10:31:51;17.77;;;7.50;;
6850;SDS011;3464;42.728;23.296;2023-05-10T10:34:20;15.43;;;7.63;;
6850;SDS011;3464;42.728;23.296;2023-05-10T10:36:45;16.93;;;6.93;;
6850;SDS011;3464;42.728;23.296;2023-05-10T10:39:13;12.33;;;4.40;;
6850;SDS011;3464;42.728;23.296;2023-05-10T10:41:40;16.90;;;6.17;;
6850;SDS011;3464;42.728;23.296;2023-05-10T10:49:25;16.67;;;6.67;;
6850;SDS011;3464;42.728;23.296;2023-05-10T10:54:29;16.13;;;6.73;;
6850;SDS011;3464;42.728;23.296;2023-05-10T10:59:42;20.93;;;6.57;;
6850;SDS011;3464;42.728;23.296;2023-05-10T11:02:09;18.70;;;7.00;;
6850;SDS011;3464;42.728;23.296;2023-05-10T11:04:41;17.93;;;7.20;;
6850;SDS011;3464;42.728;23.296;2023-05-10T11:07:16;16.90;;;7.17;;
6850;SDS011;3464;42.728;23.296;2023-05-10T11:09:43;14.33;;;7.00;;
6850;SDS011;3464;42.728;23.296;2023-05-10T11:12:09;15.53;;;6.80;;
6850;SDS011;3464;42.728;23.296;2023-05-10T11:14:36;14.23;;;6.37;;
6850;SDS011;3464;42.728;23.296;2023-05-10T11:17:02;18.17;;;7.10;;
6850;SDS011;3464;42.728;23.296;2023-05-10T11:19:31;14.80;;;6.60;;
6850;SDS011;3464;42.728;23.296;2023-05-10T11:24:57;17.07;;;7.27;;
6850;SDS011;3464;42.728;23.296;2023-05-10T11:27:25;16.53;;;6.83;;
6850;SDS011;3464;42.728;23.296;2023-05-10T11:29:52;13.70;;;6.47;;
6850;SDS011;3464;42.728;23.296;2023-05-10T11:32:19;17.33;;;6.70;;
6850;SDS011;3464;42.728;23.296;2023-05-10T11:34:46;19.70;;;7.10;;
6850;SDS011;3464;42.728;23.296;2023-05-10T11:37:13;15.10;;;6.70;;
6850;SDS011;3464;42.728;23.296;2023-05-10T11:39:45;15.03;;;6.47;;
6850;SDS011;3464;42.728;23.296;2023-05-10T11:42:07;14.50;;;6.87;;
6850;SDS011;3464;42.728;23.296;2023-05-10T11:44:34;15.40;;;6.47;;
6850;SDS011;3464;42.728;23.296;2023-05-10T11:47:07;14.87;;;7.57;;
6850;SDS011;3464;42.728;23.296;2023-05-10T11:49:36;17.97;;;7.70;;
6850;SDS011;3464;42.728;23.296;2023-05-10T11:52:05;18.30;;;6.93;;
6850;SDS011;3464;42.728;23.296;2023-05-10T11:54:31;17.13;;;6.00;;
6850;SDS011;3464;42.728;23.296;2023-05-10T11:57:00;14.73;;;6.23;;
6850;SDS011;3464;42.728;23.296;2023-05-10T11:59:27;18.10;;;7.80;;
6850;SDS011;3464;42.728;23.296;2023-05-10T12:01:54;17.90;;;7.03;;
6850;SDS011;3464;42.728;23.296;2023-05-10T12:04:23;20.07;;;7.03;;
6850;SDS011;3464;42.728;23.296;2023-05-10T12:06:52;18.63;;;6.97;;
6850;SDS011;3464;42.728;23.296;2023-05-10T12:09:18;14.13;;;6.40;;
6850;SDS011;3464;42.728;23.296;2023-05-10T12:11:45;18.93;;;6.50;;
6850;SDS011;3464;42.728;23.296;2023-05-10T12:14:13;19.67;;;7.10;;
6850;SDS011;3464;42.728;23.296;2023-05-10T12:16:40;23.57;;;7.87;;
6850;SDS011;3464;42.728;23.296;2023-05-10T12:19:07;15.97;;;7.47;;
6850;SDS011;3464;42.728;23.296;2023-05-10T12:21:34;15.93;;;6.40;;
6850;SDS011;3464;42.728;23.296;2023-05-10T12:24:02;19.53;;;7.97;;
6850;SDS011;3464;42.728;23.296;2023-05-10T12:26:29;14.97;;;7.10;;
6850;SDS011;3464;42.728;23.296;2023-05-10T12:29:11;15.87;;;8.10;;
6850;SDS011;3464;42.728;23.296;2023-05-10T12:31:22;16.37;;;7.20;;
6850;SDS011;3464;42.728;23.296;2023-05-10T12:33:51;16.87;;;7.17;;
6850;SDS011;3464;42.728;23.296;2023-05-10T12:36:22;14.77;;;6.80;;
6850;SDS011;3464;42.728;23.296;2023-05-10T12:38:45;20.07;;;7.40;;
6850;SDS011;3464;42.728;23.296;2023-05-10T12:41:16;17.73;;;7.23;;
6850;SDS011;3464;42.728;23.296;2023-05-10T12:43:45;14.60;;;7.53;;
6850;SDS011;3464;42.728;23.296;2023-05-10T12:46:12;16.73;;;7.70;;
6850;SDS011;3464;42.728;23.296;2023-05-10T12:48:39;17.07;;;7.40;;
6850;SDS011;3464;42.728;23.296;2023-05-10T12:51:05;16.90;;;7.30;;
6850;SDS011;3464;42.728;23.296;2023-05-10T12:53:34;15.00;;;6.93;;
6850;SDS011;3464;42.728;23.296;2023-05-10T12:56:02;16.20;;;7.60;;
6850;SDS011;3464;42.728;23.296;2023-05-10T12:58:28;14.73;;;7.37;;
6850;SDS011;3464;42.728;23.296;2023-05-10T13:00:55;21.13;;;7.97;;
6850;SDS011;3464;42.728;23.296;2023-05-10T13:03:22;21.80;;;7.70;;
6850;SDS011;3464;42.728;23.296;2023-05-10T13:05:49;16.13;;;7.80;;
6850;SDS011;3464;42.728;23.296;2023-05-10T13:08:17;15.80;;;7.20;;
6850;SDS011;3464;42.728;23.296;2023-05-10T13:10:44;18.27;;;7.40;;
6850;SDS011;3464;42.728;23.296;2023-05-10T13:13:11;17.43;;;7.63;;
6850;SDS011;3464;42.728;23.296;2023-05-10T13:15:40;17.33;;;7.13;;
6850;SDS011;3464;42.728;23.296;2023-05-10T13:18:08;19.50;;;7.70;;
6850;SDS011;3464;42.728;23.296;2023-05-10T13:20:35;20.97;;;9.10;;
6850;SDS011;3464;42.728;23.296;2023-05-10T13:23:02;18.00;;;8.33;;
6850;SDS011;3464;42.728;23.296;2023-05-10T13:25:28;17.30;;;7.17;;
6850;SDS011;3464;42.728;23.296;2023-05-10T13:27:55;14.80;;;7.40;;
6850;SDS011;3464;42.728;23.296;2023-05-10T13:30:22;17.70;;;8.53;;
6850;SDS011;3464;42.728;23.296;2023-05-10T13:32:49;22.90;;;8.67;;
6850;SDS011;3464;42.728;23.296;2023-05-10T13:35:16;20.63;;;7.70;;
6850;SDS011;3464;42.728;23.296;2023-05-10T13:37:43;19.50;;;8.93;;
6850;SDS011;3464;42.728;23.296;2023-05-10T13:40:10;19.43;;;7.50;;
6850;SDS011;3464;42.728;23.296;2023-05-10T13:42:43;17.40;;;8.13;;
6850;SDS011;3464;42.728;23.296;2023-05-10T13:45:13;21.00;;;8.40;;
6850;SDS011;3464;42.728;23.296;2023-05-10T13:47:43;16.73;;;7.60;;
6850;SDS011;3464;42.728;23.296;2023-05-10T13:50:11;18.87;;;7.97;;
6850;SDS011;3464;42.728;23.296;2023-05-10T13:52:38;18.23;;;8.40;;
6850;SDS011;3464;42.728;23.296;2023-05-10T13:55:06;17.37;;;7.10;;
6850;SDS011;3464;42.728;23.296;2023-05-10T13:57:34;20.07;;;8.10;;
6850;SDS011;3464;42.728;23.296;2023-05-10T14:00:04;14.97;;;6.70;;
6850;SDS011;3464;42.728;23.296;2023-05-10T14:02:31;14.10;;;7.00;;
6850;SDS011;3464;42.728;23.296;2023-05-10T14:05:00;14.00;;;6.37;;
6850;SDS011;3464;42.728;23.296;2023-05-10T14:07:27;15.80;;;7.37;;
6850;SDS011;3464;42.728;23.296;2023-05-10T14:09:55;14.67;;;7.10;;
6850;SDS011;3464;42.728;23.296;2023-05-10T14:12:22;15.63;;;7.07;;
6850;SDS011;3464;42.728;23.296;2023-05-10T14:14:51;17.73;;;6.67;;
6850;SDS011;3464;42.728;23.296;2023-05-10T14:17:19;25.80;;;6.70;;
6850;SDS011;3464;42.728;23.296;2023-05-10T14:19:47;16.33;;;7.27;;
6850;SDS011;3464;42.728;23.296;2023-05-10T14:22:14;18.63;;;9.27;;
6850;SDS011;3464;42.728;23.296;2023-05-10T14:24:42;21.67;;;6.50;;
6850;SDS011;3464;42.728;23.296;2023-05-10T14:27:11;15.70;;;7.03;;
6850;SDS011;3464;42.728;23.296;2023-05-10T14:29:39;14.70;;;6.27;;
6850;SDS011;3464;42.728;23.296;2023-05-10T14:32:06;18.50;;;7.03;;
6850;SDS011;3464;42.728;23.296;2023-05-10T14:34:35;18.17;;;7.90;;
6850;SDS011;3464;42.728;23.296;2023-05-10T14:37:09;15.73;;;6.83;;
6850;SDS011;3464;42.728;23.296;2023-05-10T14:39:34;14.77;;;6.87;;
6850;SDS011;3464;42.728;23.296;2023-05-10T14:42:01;16.07;;;7.60;;
6850;SDS011;3464;42.728;23.296;2023-05-10T14:44:29;17.43;;;7.20;;
6850;SDS011;3464;42.728;23.296;2023-05-10T14:46:58;18.17;;;7.00;;
6850;SDS011;3464;42.728;23.296;2023-05-10T14:49:27;16.00;;;7.27;;
6850;SDS011;3464;42.728;23.296;2023-05-10T14:51:58;17.13;;;6.80;;
6850;SDS011;3464;42.728;23.296;2023-05-10T14:54:27;16.40;;;7.40;;
6850;SDS011;3464;42.728;23.296;2023-05-10T14:59:30;15.10;;;7.37;;
6850;SDS011;3464;42.728;23.296;2023-05-10T15:02:03;17.70;;;7.57;;
6850;SDS011;3464;42.728;23.296;2023-05-10T15:04:31;16.00;;;7.50;;
6850;SDS011;3464;42.728;23.296;2023-05-10T15:06:58;16.10;;;7.20;;
6850;SDS011;3464;42.728;23.296;2023-05-10T15:09:25;14.53;;;6.83;;
6850;SDS011;3464;42.728;23.296;2023-05-10T15:11:54;15.03;;;6.70;;
6850;SDS011;3464;42.728;23.296;2023-05-10T15:14:21;16.73;;;7.37;;
6850;SDS011;3464;42.728;23.296;2023-05-10T15:16:48;23.27;;;7.03;;